sensor_id;sensor_type;location;lat;lon;timestamp;P1;durP1;ratioP1;P2;durP2;ratioP2
65667;SDS011;52369;52.542;13.232;2022-08-16T00:01:55;17.85;;;11.85;;
65667;SDS011;52369;52.542;13.232;2022-08-16T00:04:21;19.92;;;12.50;;
65667;SDS011;52369;52.542;13.232;2022-08-16T00:06:47;14.85;;;11.05;;
65667;SDS011;52369;52.542;13.232;2022-08-16T00:09:13;16.85;;;11.60;;
65667;SDS011;52369;52.542;13.232;2022-08-16T00:11:40;17.00;;;11.80;;
65667;SDS011;52369;52.542;13.232;2022-08-16T00:14:08;18.25;;;12.40;;
65667;SDS011;52369;52.542;13.232;2022-08-16T00:16:34;20.38;;;11.32;;
65667;SDS011;52369;52.542;13.232;2022-08-16T00:19:00;17.05;;;12.18;;
65667;SDS011;52369;52.542;13.232;2022-08-16T00:21:26;16.85;;;11.73;;
65667;SDS011;52369;52.542;13.232;2022-08-16T00:23:52;15.75;;;11.82;;
65667;SDS011;52369;52.542;13.232;2022-08-16T00:26:18;18.77;;;12.80;;
65667;SDS011;52369;52.542;13.232;2022-08-16T00:28:44;17.08;;;12.65;;
65667;SDS011;52369;52.542;13.232;2022-08-16T00:31:10;18.58;;;12.13;;
65667;SDS011;52369;52.542;13.232;2022-08-16T00:33:36;18.52;;;12.60;;
65667;SDS011;52369;52.542;13.232;2022-08-16T00:36:02;18.40;;;11.95;;
65667;SDS011;52369;52.542;13.232;2022-08-16T00:38:29;19.55;;;12.20;;
65667;SDS011;52369;52.542;13.232;2022-08-16T00:40:55;16.25;;;11.35;;
65667;SDS011;52369;52.542;13.232;2022-08-16T00:43:26;18.85;;;12.23;;
65667;SDS011;52369;52.542;13.232;2022-08-16T00:45:55;16.55;;;11.07;;
65667;SDS011;52369;52.542;13.232;2022-08-16T00:48:23;18.13;;;11.82;;
65667;SDS011;52369;52.542;13.232;2022-08-16T00:50:49;16.20;;;11.88;;
65667;SDS011;52369;52.542;13.232;2022-08-16T00:53:15;16.48;;;11.98;;
65667;SDS011;52369;52.542;13.232;2022-08-16T00:55:43;17.92;;;11.45;;
65667;SDS011;52369;52.542;13.232;2022-08-16T00:58:11;15.63;;;11.38;;
65667;SDS011;52369;52.542;13.232;2022-08-16T01:00:37;16.85;;;11.50;;
65667;SDS011;52369;52.542;13.232;2022-08-16T01:03:05;17.00;;;12.57;;
65667;SDS011;52369;52.542;13.232;2022-08-16T01:05:32;17.35;;;12.23;;
65667;SDS011;52369;52.542;13.232;2022-08-16T01:07:58;15.32;;;11.68;;
65667;SDS011;52369;52.542;13.232;2022-08-16T01:10:25;17.27;;;12.23;;
65667;SDS011;52369;52.542;13.232;2022-08-16T01:12:51;16.70;;;11.68;;
65667;SDS011;52369;52.542;13.232;2022-08-16T01:15:17;17.40;;;11.85;;
65667;SDS011;52369;52.542;13.232;2022-08-16T01:17:43;19.55;;;12.25;;
65667;SDS011;52369;52.542;13.232;2022-08-16T01:20:12;16.98;;;12.18;;
65667;SDS011;52369;52.542;13.232;2022-08-16T01:22:52;18.38;;;12.15;;
65667;SDS011;52369;52.542;13.232;2022-08-16T01:25:21;16.38;;;11.98;;
65667;SDS011;52369;52.542;13.232;2022-08-16T01:27:50;20.90;;;12.80;;
65667;SDS011;52369;52.542;13.232;2022-08-16T01:30:18;18.50;;;12.32;;
65667;SDS011;52369;52.542;13.232;2022-08-16T01:32:45;16.77;;;12.00;;
65667;SDS011;52369;52.542;13.232;2022-08-16T01:37:41;18.90;;;13.25;;
65667;SDS011;52369;52.542;13.232;2022-08-16T01:40:07;18.45;;;12.88;;
65667;SDS011;52369;52.542;13.232;2022-08-16T01:42:33;17.30;;;11.85;;
65667;SDS011;52369;52.542;13.232;2022-08-16T01:44:59;18.50;;;12.50;;
65667;SDS011;52369;52.542;13.232;2022-08-16T01:47:26;17.77;;;12.60;;
65667;SDS011;52369;52.542;13.232;2022-08-16T01:49:52;17.92;;;13.18;;
65667;SDS011;52369;52.542;13.232;2022-08-16T01:52:18;20.08;;;13.68;;
65667;SDS011;52369;52.542;13.232;2022-08-16T01:54:45;17.73;;;12.90;;
65667;SDS011;52369;52.542;13.232;2022-08-16T01:57:11;18.40;;;13.52;;
65667;SDS011;52369;52.542;13.232;2022-08-16T01:59:37;18.60;;;13.48;;
65667;SDS011;52369;52.542;13.232;2022-08-16T02:02:04;19.30;;;13.05;;
65667;SDS011;52369;52.542;13.232;2022-08-16T02:04:30;19.25;;;13.45;;
65667;SDS011;52369;52.542;13.232;2022-08-16T02:06:57;18.95;;;13.52;;
65667;SDS011;52369;52.542;13.232;2022-08-16T02:09:23;18.05;;;13.27;;
65667;SDS011;52369;52.542;13.232;2022-08-16T02:11:53;18.60;;;13.50;;
65667;SDS011;52369;52.542;13.232;2022-08-16T02:14:25;20.25;;;13.82;;
65667;SDS011;52369;52.542;13.232;2022-08-16T02:16:52;18.27;;;12.70;;
65667;SDS011;52369;52.542;13.232;2022-08-16T02:19:18;18.85;;;14.10;;
65667;SDS011;52369;52.542;13.232;2022-08-16T02:21:45;18.95;;;13.80;;
65667;SDS011;52369;52.542;13.232;2022-08-16T02:24:13;22.48;;;13.77;;
65667;SDS011;52369;52.542;13.232;2022-08-16T02:26:39;19.65;;;14.52;;
65667;SDS011;52369;52.542;13.232;2022-08-16T02:29:05;19.08;;;13.88;;
65667;SDS011;52369;52.542;13.232;2022-08-16T02:31:31;19.48;;;13.48;;
65667;SDS011;52369;52.542;13.232;2022-08-16T02:33:57;20.25;;;13.52;;
65667;SDS011;52369;52.542;13.232;2022-08-16T02:36:23;20.88;;;13.63;;
65667;SDS011;52369;52.542;13.232;2022-08-16T02:38:49;21.50;;;14.18;;
65667;SDS011;52369;52.542;13.232;2022-08-16T02:41:15;19.58;;;13.68;;
65667;SDS011;52369;52.542;13.232;2022-08-16T02:43:41;20.88;;;14.00;;
65667;SDS011;52369;52.542;13.232;2022-08-16T02:46:07;19.73;;;13.63;;
65667;SDS011;52369;52.542;13.232;2022-08-16T02:48:34;19.58;;;13.48;;
65667;SDS011;52369;52.542;13.232;2022-08-16T02:51:03;19.42;;;14.70;;
65667;SDS011;52369;52.542;13.232;2022-08-16T02:53:30;20.45;;;14.68;;
65667;SDS011;52369;52.542;13.232;2022-08-16T02:55:56;19.58;;;13.90;;
65667;SDS011;52369;52.542;13.232;2022-08-16T02:58:22;21.30;;;14.43;;
65667;SDS011;52369;52.542;13.232;2022-08-16T03:00:49;20.48;;;13.95;;
65667;SDS011;52369;52.542;13.232;2022-08-16T03:03:15;19.35;;;13.23;;
65667;SDS011;52369;52.542;13.232;2022-08-16T03:05:41;21.05;;;14.38;;
65667;SDS011;52369;52.542;13.232;2022-08-16T03:08:07;21.27;;;14.75;;
65667;SDS011;52369;52.542;13.232;2022-08-16T03:10:34;23.05;;;14.90;;
65667;SDS011;52369;52.542;13.232;2022-08-16T03:13:00;20.63;;;14.82;;
65667;SDS011;52369;52.542;13.232;2022-08-16T03:15:27;21.38;;;14.88;;
65667;SDS011;52369;52.542;13.232;2022-08-16T03:17:53;21.23;;;14.35;;
65667;SDS011;52369;52.542;13.232;2022-08-16T03:20:19;21.95;;;15.27;;
65667;SDS011;52369;52.542;13.232;2022-08-16T03:22:45;23.23;;;15.30;;
65667;SDS011;52369;52.542;13.232;2022-08-16T03:25:12;28.10;;;16.88;;
65667;SDS011;52369;52.542;13.232;2022-08-16T03:27:38;29.10;;;17.70;;
65667;SDS011;52369;52.542;13.232;2022-08-16T03:30:06;33.00;;;21.42;;
65667;SDS011;52369;52.542;13.232;2022-08-16T03:32:33;28.10;;;18.00;;
65667;SDS011;52369;52.542;13.232;2022-08-16T03:34:59;31.67;;;21.05;;
65667;SDS011;52369;52.542;13.232;2022-08-16T03:37:25;25.10;;;17.83;;
65667;SDS011;52369;52.542;13.232;2022-08-16T03:39:51;24.08;;;16.35;;
65667;SDS011;52369;52.542;13.232;2022-08-16T03:42:17;25.02;;;17.02;;
65667;SDS011;52369;52.542;13.232;2022-08-16T03:44:43;23.85;;;16.23;;
65667;SDS011;52369;52.542;13.232;2022-08-16T03:47:09;24.30;;;17.50;;
65667;SDS011;52369;52.542;13.232;2022-08-16T03:49:35;22.10;;;15.40;;
65667;SDS011;52369;52.542;13.232;2022-08-16T03:52:01;26.30;;;18.40;;
65667;SDS011;52369;52.542;13.232;2022-08-16T03:54:27;23.10;;;15.57;;
65667;SDS011;52369;52.542;13.232;2022-08-16T03:56:53;21.35;;;15.05;;
65667;SDS011;52369;52.542;13.232;2022-08-16T03:59:19;22.52;;;15.80;;
65667;SDS011;52369;52.542;13.232;2022-08-16T04:01:45;22.85;;;15.98;;
65667;SDS011;52369;52.542;13.232;2022-08-16T04:04:11;22.55;;;14.95;;
65667;SDS011;52369;52.542;13.232;2022-08-16T04:06:38;22.42;;;15.73;;
65667;SDS011;52369;52.542;13.232;2022-08-16T04:09:04;23.30;;;16.88;;
65667;SDS011;52369;52.542;13.232;2022-08-16T04:11:30;25.30;;;16.02;;
65667;SDS011;52369;52.542;13.232;2022-08-16T04:13:56;23.58;;;16.65;;
65667;SDS011;52369;52.542;13.232;2022-08-16T04:16:22;24.05;;;15.88;;
65667;SDS011;52369;52.542;13.232;2022-08-16T04:18:48;24.88;;;16.80;;
65667;SDS011;52369;52.542;13.232;2022-08-16T04:21:14;23.25;;;15.45;;
65667;SDS011;52369;52.542;13.232;2022-08-16T04:23:40;23.63;;;16.50;;
65667;SDS011;52369;52.542;13.232;2022-08-16T04:26:06;24.33;;;16.35;;
65667;SDS011;52369;52.542;13.232;2022-08-16T04:28:33;23.02;;;16.75;;
65667;SDS011;52369;52.542;13.232;2022-08-16T04:30:59;23.17;;;16.02;;
65667;SDS011;52369;52.542;13.232;2022-08-16T04:33:25;23.63;;;16.35;;
65667;SDS011;52369;52.542;13.232;2022-08-16T04:35:51;24.23;;;17.17;;
65667;SDS011;52369;52.542;13.232;2022-08-16T04:38:18;25.73;;;17.05;;
65667;SDS011;52369;52.542;13.232;2022-08-16T04:40:45;23.48;;;16.08;;
65667;SDS011;52369;52.542;13.232;2022-08-16T04:43:14;24.60;;;16.95;;
65667;SDS011;52369;52.542;13.232;2022-08-16T04:45:41;24.40;;;16.52;;
65667;SDS011;52369;52.542;13.232;2022-08-16T04:48:07;25.02;;;17.13;;
65667;SDS011;52369;52.542;13.232;2022-08-16T04:50:34;23.17;;;16.30;;
65667;SDS011;52369;52.542;13.232;2022-08-16T04:53:01;26.58;;;16.80;;
65667;SDS011;52369;52.542;13.232;2022-08-16T04:55:27;24.33;;;16.45;;
65667;SDS011;52369;52.542;13.232;2022-08-16T04:57:54;26.67;;;16.67;;
65667;SDS011;52369;52.542;13.232;2022-08-16T05:00:22;24.70;;;16.33;;
65667;SDS011;52369;52.542;13.232;2022-08-16T05:02:49;25.48;;;17.25;;
65667;SDS011;52369;52.542;13.232;2022-08-16T05:05:15;22.45;;;15.60;;
65667;SDS011;52369;52.542;13.232;2022-08-16T05:07:42;21.98;;;14.98;;
65667;SDS011;52369;52.542;13.232;2022-08-16T05:10:08;21.88;;;15.38;;
65667;SDS011;52369;52.542;13.232;2022-08-16T05:12:35;23.92;;;16.33;;
65667;SDS011;52369;52.542;13.232;2022-08-16T05:15:01;21.30;;;15.07;;
65667;SDS011;52369;52.542;13.232;2022-08-16T05:17:27;22.80;;;15.45;;
65667;SDS011;52369;52.542;13.232;2022-08-16T05:19:55;22.88;;;16.08;;
65667;SDS011;52369;52.542;13.232;2022-08-16T05:22:22;24.65;;;16.08;;
65667;SDS011;52369;52.542;13.232;2022-08-16T05:24:47;25.00;;;16.67;;
65667;SDS011;52369;52.542;13.232;2022-08-16T05:27:14;23.60;;;15.80;;
65667;SDS011;52369;52.542;13.232;2022-08-16T05:29:40;27.30;;;16.10;;
65667;SDS011;52369;52.542;13.232;2022-08-16T05:32:06;22.67;;;15.52;;
65667;SDS011;52369;52.542;13.232;2022-08-16T05:34:32;22.98;;;15.80;;
65667;SDS011;52369;52.542;13.232;2022-08-16T05:36:58;25.23;;;15.80;;
65667;SDS011;52369;52.542;13.232;2022-08-16T05:39:25;22.83;;;15.50;;
65667;SDS011;52369;52.542;13.232;2022-08-16T05:41:51;20.80;;;15.32;;
65667;SDS011;52369;52.542;13.232;2022-08-16T05:44:18;20.55;;;14.82;;
65667;SDS011;52369;52.542;13.232;2022-08-16T05:46:45;21.85;;;15.13;;
65667;SDS011;52369;52.542;13.232;2022-08-16T05:49:11;24.48;;;15.77;;
65667;SDS011;52369;52.542;13.232;2022-08-16T05:51:40;21.27;;;14.93;;
65667;SDS011;52369;52.542;13.232;2022-08-16T05:54:06;21.02;;;14.80;;
65667;SDS011;52369;52.542;13.232;2022-08-16T05:56:32;19.70;;;14.63;;
65667;SDS011;52369;52.542;13.232;2022-08-16T05:58:58;19.67;;;14.30;;
65667;SDS011;52369;52.542;13.232;2022-08-16T06:01:24;20.58;;;15.45;;
65667;SDS011;52369;52.542;13.232;2022-08-16T06:03:50;22.65;;;14.40;;
65667;SDS011;52369;52.542;13.232;2022-08-16T06:06:16;18.73;;;14.32;;
65667;SDS011;52369;52.542;13.232;2022-08-16T06:08:42;19.95;;;13.50;;
65667;SDS011;52369;52.542;13.232;2022-08-16T06:11:08;19.75;;;14.00;;
65667;SDS011;52369;52.542;13.232;2022-08-16T06:13:35;19.00;;;14.50;;
65667;SDS011;52369;52.542;13.232;2022-08-16T06:16:03;23.00;;;14.55;;
65667;SDS011;52369;52.542;13.232;2022-08-16T06:18:29;22.30;;;15.43;;
65667;SDS011;52369;52.542;13.232;2022-08-16T06:20:55;23.25;;;15.48;;
65667;SDS011;52369;52.542;13.232;2022-08-16T06:23:21;22.90;;;15.20;;
65667;SDS011;52369;52.542;13.232;2022-08-16T06:25:48;20.15;;;14.40;;
65667;SDS011;52369;52.542;13.232;2022-08-16T06:28:14;18.90;;;14.43;;
65667;SDS011;52369;52.542;13.232;2022-08-16T06:30:40;22.10;;;14.65;;
65667;SDS011;52369;52.542;13.232;2022-08-16T06:33:06;22.85;;;14.75;;
65667;SDS011;52369;52.542;13.232;2022-08-16T06:35:33;18.95;;;13.55;;
65667;SDS011;52369;52.542;13.232;2022-08-16T06:38:00;17.02;;;13.23;;
65667;SDS011;52369;52.542;13.232;2022-08-16T06:40:26;18.90;;;14.00;;
65667;SDS011;52369;52.542;13.232;2022-08-16T06:42:53;18.67;;;13.82;;
65667;SDS011;52369;52.542;13.232;2022-08-16T06:45:20;20.80;;;13.57;;
65667;SDS011;52369;52.542;13.232;2022-08-16T06:47:47;17.55;;;13.38;;
65667;SDS011;52369;52.542;13.232;2022-08-16T06:50:13;18.58;;;13.55;;
65667;SDS011;52369;52.542;13.232;2022-08-16T06:52:39;20.10;;;14.02;;
65667;SDS011;52369;52.542;13.232;2022-08-16T06:55:06;20.73;;;13.95;;
65667;SDS011;52369;52.542;13.232;2022-08-16T06:57:32;19.75;;;13.82;;
65667;SDS011;52369;52.542;13.232;2022-08-16T06:59:58;19.33;;;14.05;;
65667;SDS011;52369;52.542;13.232;2022-08-16T07:02:24;18.50;;;14.13;;
65667;SDS011;52369;52.542;13.232;2022-08-16T07:04:50;18.70;;;14.00;;
65667;SDS011;52369;52.542;13.232;2022-08-16T07:07:17;19.45;;;14.43;;
65667;SDS011;52369;52.542;13.232;2022-08-16T07:09:44;19.23;;;14.30;;
65667;SDS011;52369;52.542;13.232;2022-08-16T07:12:11;20.30;;;13.73;;
65667;SDS011;52369;52.542;13.232;2022-08-16T07:14:37;20.30;;;14.43;;
65667;SDS011;52369;52.542;13.232;2022-08-16T07:17:03;21.00;;;14.95;;
65667;SDS011;52369;52.542;13.232;2022-08-16T07:19:31;22.85;;;15.40;;
65667;SDS011;52369;52.542;13.232;2022-08-16T07:21:57;20.33;;;14.82;;
65667;SDS011;52369;52.542;13.232;2022-08-16T07:24:26;20.75;;;15.15;;
65667;SDS011;52369;52.542;13.232;2022-08-16T07:26:53;21.98;;;14.75;;
65667;SDS011;52369;52.542;13.232;2022-08-16T07:29:19;20.45;;;14.68;;
65667;SDS011;52369;52.542;13.232;2022-08-16T07:31:45;18.77;;;13.82;;
65667;SDS011;52369;52.542;13.232;2022-08-16T07:34:11;21.02;;;14.65;;
65667;SDS011;52369;52.542;13.232;2022-08-16T07:36:37;22.08;;;15.05;;
65667;SDS011;52369;52.542;13.232;2022-08-16T07:39:03;18.92;;;14.35;;
65667;SDS011;52369;52.542;13.232;2022-08-16T07:41:29;21.08;;;14.70;;
65667;SDS011;52369;52.542;13.232;2022-08-16T07:43:55;20.50;;;14.45;;
65667;SDS011;52369;52.542;13.232;2022-08-16T07:46:21;20.40;;;14.60;;
65667;SDS011;52369;52.542;13.232;2022-08-16T07:48:47;21.85;;;14.52;;
65667;SDS011;52369;52.542;13.232;2022-08-16T07:51:13;20.73;;;14.57;;
65667;SDS011;52369;52.542;13.232;2022-08-16T07:53:39;21.58;;;15.73;;
65667;SDS011;52369;52.542;13.232;2022-08-16T07:56:05;21.83;;;15.20;;
65667;SDS011;52369;52.542;13.232;2022-08-16T07:58:31;21.15;;;15.45;;
65667;SDS011;52369;52.542;13.232;2022-08-16T08:00:58;19.73;;;14.98;;
65667;SDS011;52369;52.542;13.232;2022-08-16T08:03:25;22.17;;;15.20;;
65667;SDS011;52369;52.542;13.232;2022-08-16T08:05:51;20.73;;;14.02;;
65667;SDS011;52369;52.542;13.232;2022-08-16T08:08:17;20.58;;;15.10;;
65667;SDS011;52369;52.542;13.232;2022-08-16T08:10:43;19.67;;;15.02;;
65667;SDS011;52369;52.542;13.232;2022-08-16T08:13:09;20.63;;;15.00;;
65667;SDS011;52369;52.542;13.232;2022-08-16T08:15:35;20.15;;;13.88;;
65667;SDS011;52369;52.542;13.232;2022-08-16T08:18:01;19.75;;;13.85;;
65667;SDS011;52369;52.542;13.232;2022-08-16T08:20:27;20.38;;;14.18;;
65667;SDS011;52369;52.542;13.232;2022-08-16T08:22:55;18.38;;;13.98;;
65667;SDS011;52369;52.542;13.232;2022-08-16T08:25:22;18.45;;;13.80;;
65667;SDS011;52369;52.542;13.232;2022-08-16T08:27:48;20.05;;;14.88;;
65667;SDS011;52369;52.542;13.232;2022-08-16T08:30:14;20.77;;;13.80;;
65667;SDS011;52369;52.542;13.232;2022-08-16T08:32:41;20.63;;;15.20;;
65667;SDS011;52369;52.542;13.232;2022-08-16T08:35:07;21.27;;;15.38;;
65667;SDS011;52369;52.542;13.232;2022-08-16T08:37:34;20.20;;;14.48;;
65667;SDS011;52369;52.542;13.232;2022-08-16T08:40:01;19.15;;;14.68;;
65667;SDS011;52369;52.542;13.232;2022-08-16T08:42:27;18.55;;;13.23;;
65667;SDS011;52369;52.542;13.232;2022-08-16T08:44:53;20.02;;;14.60;;
65667;SDS011;52369;52.542;13.232;2022-08-16T08:47:19;19.15;;;14.10;;
65667;SDS011;52369;52.542;13.232;2022-08-16T08:49:45;18.92;;;14.45;;
65667;SDS011;52369;52.542;13.232;2022-08-16T08:52:11;18.08;;;13.40;;
65667;SDS011;52369;52.542;13.232;2022-08-16T08:54:37;19.15;;;14.05;;
65667;SDS011;52369;52.542;13.232;2022-08-16T08:57:04;18.13;;;13.73;;
65667;SDS011;52369;52.542;13.232;2022-08-16T08:59:31;19.40;;;13.68;;
65667;SDS011;52369;52.542;13.232;2022-08-16T09:01:57;17.17;;;12.68;;
65667;SDS011;52369;52.542;13.232;2022-08-16T09:04:25;17.15;;;12.23;;
65667;SDS011;52369;52.542;13.232;2022-08-16T09:06:52;16.70;;;12.23;;
65667;SDS011;52369;52.542;13.232;2022-08-16T09:09:18;18.58;;;13.18;;
65667;SDS011;52369;52.542;13.232;2022-08-16T09:11:45;16.60;;;12.10;;
65667;SDS011;52369;52.542;13.232;2022-08-16T09:14:11;14.38;;;11.10;;
65667;SDS011;52369;52.542;13.232;2022-08-16T09:16:37;16.20;;;11.68;;
65667;SDS011;52369;52.542;13.232;2022-08-16T09:19:03;17.05;;;12.18;;
65667;SDS011;52369;52.542;13.232;2022-08-16T09:21:29;17.02;;;11.73;;
65667;SDS011;52369;52.542;13.232;2022-08-16T09:23:55;17.38;;;11.95;;
65667;SDS011;52369;52.542;13.232;2022-08-16T09:26:22;16.95;;;10.95;;
65667;SDS011;52369;52.542;13.232;2022-08-16T09:28:48;16.33;;;11.00;;
65667;SDS011;52369;52.542;13.232;2022-08-16T09:31:15;16.30;;;11.32;;
65667;SDS011;52369;52.542;13.232;2022-08-16T09:33:42;16.45;;;10.90;;
65667;SDS011;52369;52.542;13.232;2022-08-16T09:36:08;15.00;;;10.77;;
65667;SDS011;52369;52.542;13.232;2022-08-16T09:38:35;16.05;;;10.48;;
65667;SDS011;52369;52.542;13.232;2022-08-16T09:41:02;16.40;;;11.95;;
65667;SDS011;52369;52.542;13.232;2022-08-16T09:43:29;15.00;;;11.15;;
65667;SDS011;52369;52.542;13.232;2022-08-16T09:45:55;15.23;;;9.98;;
65667;SDS011;52369;52.542;13.232;2022-08-16T09:48:21;13.60;;;9.85;;
65667;SDS011;52369;52.542;13.232;2022-08-16T09:50:47;13.20;;;10.43;;
65667;SDS011;52369;52.542;13.232;2022-08-16T09:53:15;15.13;;;10.32;;
65667;SDS011;52369;52.542;13.232;2022-08-16T09:55:42;15.48;;;10.05;;
65667;SDS011;52369;52.542;13.232;2022-08-16T09:58:10;13.88;;;9.27;;
65667;SDS011;52369;52.542;13.232;2022-08-16T10:00:36;12.85;;;8.35;;
65667;SDS011;52369;52.542;13.232;2022-08-16T10:03:02;14.68;;;9.70;;
65667;SDS011;52369;52.542;13.232;2022-08-16T10:05:29;12.60;;;9.60;;
65667;SDS011;52369;52.542;13.232;2022-08-16T10:07:56;12.43;;;8.50;;
65667;SDS011;52369;52.542;13.232;2022-08-16T10:10:22;13.93;;;9.48;;
65667;SDS011;52369;52.542;13.232;2022-08-16T10:12:48;12.82;;;8.95;;
65667;SDS011;52369;52.542;13.232;2022-08-16T10:15:34;12.25;;;8.38;;
65667;SDS011;52369;52.542;13.232;2022-08-16T10:18:01;13.82;;;8.95;;
65667;SDS011;52369;52.542;13.232;2022-08-16T10:20:32;15.80;;;10.88;;
65667;SDS011;52369;52.542;13.232;2022-08-16T10:22:58;12.82;;;8.75;;
65667;SDS011;52369;52.542;13.232;2022-08-16T10:25:24;12.18;;;8.40;;
65667;SDS011;52369;52.542;13.232;2022-08-16T10:27:50;9.98;;;7.75;;
65667;SDS011;52369;52.542;13.232;2022-08-16T10:30:16;11.55;;;8.52;;
65667;SDS011;52369;52.542;13.232;2022-08-16T10:32:43;12.07;;;8.20;;
65667;SDS011;52369;52.542;13.232;2022-08-16T10:35:09;11.85;;;8.25;;
65667;SDS011;52369;52.542;13.232;2022-08-16T10:37:35;12.15;;;8.10;;
65667;SDS011;52369;52.542;13.232;2022-08-16T10:40:01;13.15;;;8.27;;
65667;SDS011;52369;52.542;13.232;2022-08-16T10:42:27;11.00;;;7.95;;
65667;SDS011;52369;52.542;13.232;2022-08-16T10:44:53;12.77;;;8.32;;
65667;SDS011;52369;52.542;13.232;2022-08-16T10:47:19;13.23;;;8.55;;
65667;SDS011;52369;52.542;13.232;2022-08-16T10:49:46;12.10;;;8.43;;
65667;SDS011;52369;52.542;13.232;2022-08-16T10:52:12;12.60;;;8.43;;
65667;SDS011;52369;52.542;13.232;2022-08-16T10:54:38;13.88;;;8.38;;
65667;SDS011;52369;52.542;13.232;2022-08-16T10:57:04;9.60;;;7.85;;
65667;SDS011;52369;52.542;13.232;2022-08-16T10:59:31;12.23;;;7.95;;
65667;SDS011;52369;52.542;13.232;2022-08-16T11:01:58;10.88;;;8.70;;
65667;SDS011;52369;52.542;13.232;2022-08-16T11:04:24;13.30;;;9.02;;
65667;SDS011;52369;52.542;13.232;2022-08-16T11:06:50;10.32;;;7.82;;
65667;SDS011;52369;52.542;13.232;2022-08-16T11:09:16;11.10;;;8.13;;
65667;SDS011;52369;52.542;13.232;2022-08-16T11:11:42;12.48;;;7.65;;
65667;SDS011;52369;52.542;13.232;2022-08-16T11:14:08;11.90;;;8.45;;
65667;SDS011;52369;52.542;13.232;2022-08-16T11:16:36;12.05;;;8.18;;
65667;SDS011;52369;52.542;13.232;2022-08-16T11:19:02;11.70;;;7.82;;
65667;SDS011;52369;52.542;13.232;2022-08-16T11:21:30;12.30;;;8.13;;
65667;SDS011;52369;52.542;13.232;2022-08-16T11:23:56;11.02;;;7.30;;
65667;SDS011;52369;52.542;13.232;2022-08-16T11:26:22;10.73;;;7.65;;
65667;SDS011;52369;52.542;13.232;2022-08-16T11:28:49;10.85;;;7.97;;
65667;SDS011;52369;52.542;13.232;2022-08-16T11:31:15;12.40;;;8.40;;
65667;SDS011;52369;52.542;13.232;2022-08-16T11:33:41;12.18;;;7.60;;
65667;SDS011;52369;52.542;13.232;2022-08-16T11:36:08;11.05;;;7.63;;
65667;SDS011;52369;52.542;13.232;2022-08-16T11:38:34;10.55;;;7.47;;
65667;SDS011;52369;52.542;13.232;2022-08-16T11:41:00;11.93;;;7.97;;
65667;SDS011;52369;52.542;13.232;2022-08-16T11:43:29;9.82;;;7.68;;
65667;SDS011;52369;52.542;13.232;2022-08-16T11:45:56;11.10;;;7.43;;
65667;SDS011;52369;52.542;13.232;2022-08-16T11:48:23;10.90;;;7.50;;
65667;SDS011;52369;52.542;13.232;2022-08-16T11:50:49;11.88;;;7.70;;
65667;SDS011;52369;52.542;13.232;2022-08-16T11:53:15;11.30;;;7.18;;
65667;SDS011;52369;52.542;13.232;2022-08-16T11:55:42;9.70;;;7.38;;
65667;SDS011;52369;52.542;13.232;2022-08-16T11:58:09;10.80;;;7.53;;
65667;SDS011;52369;52.542;13.232;2022-08-16T12:00:35;9.32;;;6.95;;
65667;SDS011;52369;52.542;13.232;2022-08-16T12:03:02;9.68;;;6.45;;
65667;SDS011;52369;52.542;13.232;2022-08-16T12:05:28;10.27;;;7.00;;
65667;SDS011;52369;52.542;13.232;2022-08-16T12:07:55;10.30;;;7.22;;
65667;SDS011;52369;52.542;13.232;2022-08-16T12:10:22;10.10;;;7.30;;
65667;SDS011;52369;52.542;13.232;2022-08-16T12:12:48;11.02;;;7.40;;
65667;SDS011;52369;52.542;13.232;2022-08-16T12:15:16;10.63;;;6.97;;
65667;SDS011;52369;52.542;13.232;2022-08-16T12:17:42;9.77;;;7.85;;
65667;SDS011;52369;52.542;13.232;2022-08-16T12:20:18;13.48;;;6.60;;
65667;SDS011;52369;52.542;13.232;2022-08-16T12:22:45;8.32;;;6.57;;
65667;SDS011;52369;52.542;13.232;2022-08-16T12:25:12;10.00;;;6.95;;
65667;SDS011;52369;52.542;13.232;2022-08-16T12:27:39;10.10;;;6.70;;
65667;SDS011;52369;52.542;13.232;2022-08-16T12:30:06;8.88;;;7.00;;
65667;SDS011;52369;52.542;13.232;2022-08-16T12:32:33;10.60;;;6.93;;
65667;SDS011;52369;52.542;13.232;2022-08-16T12:34:59;10.52;;;6.32;;
65667;SDS011;52369;52.542;13.232;2022-08-16T12:37:25;8.95;;;6.25;;
65667;SDS011;52369;52.542;13.232;2022-08-16T12:39:53;8.75;;;5.80;;
65667;SDS011;52369;52.542;13.232;2022-08-16T12:42:20;9.75;;;6.28;;
65667;SDS011;52369;52.542;13.232;2022-08-16T12:44:46;8.60;;;6.28;;
65667;SDS011;52369;52.542;13.232;2022-08-16T12:47:13;9.57;;;6.50;;
65667;SDS011;52369;52.542;13.232;2022-08-16T12:49:58;8.75;;;6.60;;
65667;SDS011;52369;52.542;13.232;2022-08-16T12:52:24;8.13;;;6.00;;
65667;SDS011;52369;52.542;13.232;2022-08-16T12:54:51;7.97;;;5.82;;
65667;SDS011;52369;52.542;13.232;2022-08-16T12:57:19;8.52;;;6.40;;
65667;SDS011;52369;52.542;13.232;2022-08-16T12:59:47;9.45;;;6.30;;
65667;SDS011;52369;52.542;13.232;2022-08-16T13:02:13;8.13;;;6.20;;
65667;SDS011;52369;52.542;13.232;2022-08-16T13:04:39;9.27;;;6.30;;
65667;SDS011;52369;52.542;13.232;2022-08-16T13:07:05;8.73;;;6.03;;
65667;SDS011;52369;52.542;13.232;2022-08-16T13:09:31;8.90;;;6.40;;
65667;SDS011;52369;52.542;13.232;2022-08-16T13:12:06;9.43;;;6.20;;
65667;SDS011;52369;52.542;13.232;2022-08-16T13:14:43;10.00;;;6.38;;
65667;SDS011;52369;52.542;13.232;2022-08-16T13:17:14;8.32;;;6.10;;
65667;SDS011;52369;52.542;13.232;2022-08-16T13:22:07;8.32;;;6.43;;
65667;SDS011;52369;52.542;13.232;2022-08-16T13:24:33;10.02;;;6.38;;
65667;SDS011;52369;52.542;13.232;2022-08-16T13:26:59;10.35;;;6.18;;
65667;SDS011;52369;52.542;13.232;2022-08-16T13:29:25;10.65;;;6.32;;
65667;SDS011;52369;52.542;13.232;2022-08-16T13:31:51;7.40;;;5.65;;
65667;SDS011;52369;52.542;13.232;2022-08-16T13:34:17;9.73;;;6.32;;
65667;SDS011;52369;52.542;13.232;2022-08-16T13:36:44;7.68;;;6.05;;
65667;SDS011;52369;52.542;13.232;2022-08-16T13:39:10;8.70;;;5.85;;
65667;SDS011;52369;52.542;13.232;2022-08-16T13:41:36;8.52;;;6.03;;
65667;SDS011;52369;52.542;13.232;2022-08-16T13:44:02;8.13;;;6.28;;
65667;SDS011;52369;52.542;13.232;2022-08-16T13:46:29;7.32;;;6.03;;
65667;SDS011;52369;52.542;13.232;2022-08-16T13:48:56;9.30;;;6.15;;
65667;SDS011;52369;52.542;13.232;2022-08-16T13:51:23;7.65;;;5.97;;
65667;SDS011;52369;52.542;13.232;2022-08-16T13:53:55;8.13;;;5.55;;
65667;SDS011;52369;52.542;13.232;2022-08-16T13:56:22;9.52;;;6.03;;
65667;SDS011;52369;52.542;13.232;2022-08-16T13:58:48;8.73;;;5.30;;
65667;SDS011;52369;52.542;13.232;2022-08-16T14:01:15;8.68;;;5.82;;
65667;SDS011;52369;52.542;13.232;2022-08-16T14:03:41;10.07;;;6.25;;
65667;SDS011;52369;52.542;13.232;2022-08-16T14:06:07;7.28;;;5.45;;
65667;SDS011;52369;52.542;13.232;2022-08-16T14:08:34;7.13;;;5.57;;
65667;SDS011;52369;52.542;13.232;2022-08-16T14:11:00;7.57;;;5.18;;
65667;SDS011;52369;52.542;13.232;2022-08-16T14:13:26;9.05;;;5.82;;
65667;SDS011;52369;52.542;13.232;2022-08-16T14:15:52;8.98;;;5.55;;